Date,TemperatureHighF,TemperatureAvgF,TemperatureLowF,DewpointHighF,DewpointAvgF,DewpointLowF,HumidityHigh,HumidityAvg,HumidityLow,PressureMaxIn,PressureMinIn,WindSpeedMaxMPH,WindSpeedAvgMPH,GustSpeedMaxMPH,PrecipitationSumIn
2014-1-1,51,44,37,44,40,36,95,86,72,30.40,30.15,3,0,3,0.00
2014-1-2,52,48,40,52,46,32,97,93,74,30.16,29.70,25,3,29,0.46
2014-1-3,40,32,25,32,19,13,89,60,37,30.45,29.86,31,5,31,0.00
2014-1-4,41,34,24,33,25,19,89,71,58,30.49,30.24,10,1,11,0.00
2014-1-5,51,44,37,50,41,32,95,89,79,30.24,29.82,7,0,8,0.05
2014-1-6,60,43,21,59,32,4,96,69,41,30.34,29.74,32,10,32,0.16
2014-1-7,31,21,13,16,7,3,85,56,35,30.57,30.33,19,2,20,0.00
2014-1-8,46,29,16,24,17,13,91,65,28,30.62,30.51,9,0,9,0.00
2014-1-9,58,44,28,41,30,19,84,58,44,30.55,30.38,8,0,9,0.00
2014-1-10,56,51,47,55,48,41,97,91,66,30.38,30.06,13,0,13,0.68
2014-1-11,69,62,54,67,61,49,98,96,79,30.06,29.70,20,4,20,0.87
2014-1-12,61,50,37,50,40,36,94,72,39,30.22,29.83,16,3,16,0.00
2014-1-13,65,48,32,52,42,30,96,81,45,30.21,29.90,14,1,15,0.07
2014-1-14,64,54,38,57,49,37,97,87,51,30.01,29.81,20,3,20,0.13
2014-1-15,38,38,38,36,36,36,95,95,95,30.00,30.00,0,0,0,0.00
2014-1-16,48,40,31,30,26,24,81,60,41,30.11,29.95,14,3,17,0.00
2014-1-17,58,44,29,40,31,21,87,62,30,30.10,29.91,23,4,24,0.00
2014-1-18,47,38,31,24,20,17,72,49,32,30.18,29.98,24,6,26,0.00
2014-1-19,59,45,30,38,30,22,78,57,36,30.09,29.99,24,4,25,0.00
2014-1-20,68,51,37,33,30,26,76,50,21,30.04,29.89,22,5,22,0.00
2014-1-21,63,48,37,45,34,25,84,60,34,29.89,29.57,32,7,34,0.00
2014-1-22,42,33,26,26,18,11,73,55,32,30.15,29.86,14,4,18,0.00
2014-1-23,46,34,21,19,14,9,82,46,26,30.40,30.15,17,2,17,0.00
2014-1-24,35,27,15,13,5,-4,81,41,20,30.64,30.34,16,2,16,0.00
2014-1-25,53,34,14,22,17,10,87,55,28,30.34,29.81,31,6,35,0.00
2014-1-26,57,44,28,34,28,20,77,55,40,30.04,29.92,19,3,20,0.00
2014-1-27,69,54,42,50,42,34,91,65,42,29.99,29.83,23,4,23,0.00
2014-1-28,46,37,28,44,25,10,92,65,29,30.23,29.98,16,2,18,0.15
2014-1-29,30,27,22,26,24,20,99,87,76,30.38,30.16,10,0,10,0.00
2014-1-30,40,27,16,27,20,13,92,77,47,30.41,30.23,9,0,9,0.11
2014-1-31,58,35,19,28,22,16,91,66,23,30.29,30.17,7,0,7,0.10
2014-2-1,46,40,28,45,37,26,96,91,72,30.24,30.13,6,0,8,0.30
2014-2-2,67,52,42,59,49,41,97,92,71,30.20,30.02,9,1,9,0.01
2014-2-3,74,64,52,65,60,51,97,88,73,30.14,29.96,26,5,26,0.00
2014-2-4,55,46,43,54,44,42,96,92,81,30.30,30.09,11,1,12,0.05
2014-2-5,70,54,43,65,47,36,98,81,44,30.12,29.88,25,5,26,0.07
2014-2-6,50,43,35,38,33,31,89,70,51,30.34,30.12,13,1,13,0.01
2014-2-7,54,42,31,41,36,29,100,79,54,30.36,30.24,10,0,10,0.00
2014-2-8,59,45,35,42,38,33,94,79,48,30.29,30.10,10,0,10,0.00
2014-2-9,65,47,33,50,40,31,96,79,47,30.19,30.00,17,3,18,0.00
2014-2-10,62,48,37,48,42,36,95,80,58,30.17,30.02,7,1,12,0.00
2014-2-11,45,38,33,38,35,30,93,91,73,30.34,30.15,14,2,14,0.49
2014-2-12,33,31,31,30,28,27,91,89,87,30.33,30.23,12,2,12,0.04
2014-2-13,36,33,32,34,31,30,100,94,93,29.77,29.63,14,0,14,0.03
2014-2-14,59,58,56,40,39,37,53,49,45,29.90,29.86,11,9,19,0.29
2014-2-15,54,48,36,46,37,26,93,68,38,30.11,29.61,19,7,30,14.19
2014-2-16,64,47,37,37,32,26,87,59,33,30.16,30.05,13,3,22,0.16
2014-2-17,61,47,31,45,37,30,95,70,44,30.30,30.14,7,1,17,0.00
2014-2-18,74,57,41,56,47,39,96,73,34,30.24,30.08,10,1,12,0.00
2014-2-19,80,66,58,60,56,53,93,73,41,30.10,29.98,23,6,26,0.38
2014-2-20,83,66,51,64,57,50,95,76,43,30.15,30.00,13,3,23,0.01
2014-2-21,67,66,64,64,63,62,92,91,90,30.00,29.95,15,4,15,0.00
2014-2-22,67,52,35,46,39,33,95,67,33,30.19,30.04,13,0,13,0.00
2014-2-23,58,44,38,50,41,37,96,91,73,30.12,30.08,6,0,6,0.00
2014-2-24,71,60,52,55,48,41,96,70,34,30.09,29.93,11,2,13,0.00
2014-2-25,71,60,43,54,46,36,95,65,29,30.06,29.91,21,5,27,0.00
2014-2-26,57,47,39,50,44,37,98,90,77,29.91,29.77,11,1,12,0.30
2014-2-27,58,43,32,38,32,23,100,71,28,29.97,29.84,19,3,19,0.00
2014-2-28,59,44,28,39,30,21,93,62,37,30.22,29.97,12,1,13,0.00
2014-3-1,64,48,38,45,39,33,93,71,41,30.33,30.18,12,0,12,0.00
2014-3-2,74,55,35,53,46,34,96,73,45,30.26,30.00,15,2,15,0.00
2014-3-3,67,54,36,62,49,32,92,81,72,30.17,29.83,26,5,27,0.30
2014-3-4,38,34,29,32,26,21,88,70,57,30.30,30.15,18,2,19,0.02
2014-3-5,48,40,35,43,35,26,90,83,60,30.22,30.10,11,0,12,0.00
2014-3-6,39,38,36,37,33,24,94,84,57,30.24,29.91,13,3,18,0.60
2014-3-7,47,42,38,44,40,37,95,93,86,30.07,29.84,20,5,20,0.14
2014-3-8,70,51,32,53,43,31,97,76,44,30.17,30.04,17,3,17,0.01
2014-3-9,76,61,47,50,48,44,90,64,37,30.13,30.00,18,3,18,0.00
2014-3-10,78,62,43,51,46,39,91,58,34,30.04,29.86,26,5,26,0.00
2014-3-11,82,67,49,56,52,45,87,61,36,29.90,29.71,21,5,21,0.00
2014-3-12,76,64,49,63,55,34,95,74,53,29.77,29.43,28,9,40,0.14
2014-3-13,56,46,35,34,27,22,86,49,27,30.25,29.77,19,6,27,0.00
2014-3-14,66,48,28,42,31,26,94,59,23,30.35,30.15,19,2,20,0.00
2014-3-15,74,60,48,47,44,42,83,60,33,30.17,30.00,18,2,20,0.00
2014-3-16,61,57,53,60,55,46,96,92,67,30.05,29.67,17,1,20,1.06
2014-3-17,61,47,38,59,45,37,96,94,93,29.91,29.68,14,2,15,0.20
2014-3-18,45,40,36,42,38,34,94,91,86,30.15,29.85,15,3,17,0.01
2014-3-19,63,48,42,52,45,41,100,89,67,30.21,30.02,14,1,14,0.01
2014-3-20,74,57,43,54,43,32,97,68,23,30.08,29.95,18,2,19,0.00
2014-3-21,72,57,36,43,36,30,90,50,23,30.19,30.05,13,0,13,0.00
2014-3-22,80,62,46,60,50,42,95,69,39,30.10,29.94,15,1,16,0.00
2014-3-23,73,60,50,61,52,43,97,79,54,30.10,29.88,24,3,24,0.00
2014-3-24,59,49,39,43,36,29,95,65,36,30.25,30.05,14,1,14,0.00
2014-3-25,58,48,40,47,35,21,91,63,30,30.09,29.78,31,5,31,0.02
2014-3-26,56,42,28,31,22,14,89,50,23,30.33,30.09,17,2,17,0.00
2014-3-27,68,49,30,49,37,27,93,67,34,30.45,30.27,16,2,20,0.00
2014-3-28,67,58,47,62,55,45,97,92,79,30.27,30.05,11,0,11,0.23
2014-3-29,78,67,57,66,61,45,98,82,60,30.07,29.67,35,6,35,0.22
2014-3-30,68,56,46,46,37,28,77,51,23,30.05,29.79,29,8,30,0.00
2014-3-31,78,57,34,45,34,25,93,51,14,30.16,30.05,11,0,12,0.00
2014-4-1,85,64,42,50,41,33,94,53,16,30.16,30.03,14,2,19,0.00
2014-4-2,87,69,47,52,43,28,92,47,12,30.15,30.03,20,3,20,0.00
2014-4-3,86,72,57,58,53,42,83,54,30,30.10,29.94,21,3,22,0.00
2014-4-4,83,71,55,64,60,53,95,69,47,29.98,29.83,33,6,33,0.00
2014-4-5,82,70,59,60,51,34,90,56,20,30.01,29.89,20,4,23,0.00
2014-4-6,63,59,53,54,48,42,83,66,56,30.11,29.99,10,0,10,0.00
2014-4-7,66,59,54,63,56,48,97,91,78,30.03,29.72,18,1,20,0.77
2014-4-8,70,63,53,65,55,48,96,77,53,29.73,29.62,21,6,21,0.03
2014-4-9,72,59,47,51,46,42,90,66,36,30.12,29.71,19,2,20,0.00
2014-4-10,76,60,42,48,43,37,95,60,26,30.28,30.12,17,2,17,0.00
2014-4-11,79,66,52,58,52,46,87,62,43,30.29,30.11,23,3,23,0.00
2014-4-12,82,68,52,60,55,49,94,65,38,30.23,30.10,14,1,14,0.00
2014-4-13,82,66,53,65,57,51,96,76,49,30.21,30.07,14,1,14,0.00
2014-4-14,82,72,62,68,64,59,94,78,53,30.10,29.81,16,2,16,0.00
2014-4-15,73,67,49,70,62,39,95,85,60,30.02,29.63,24,6,24,0.57
2014-4-16,61,49,38,39,34,28,77,59,37,30.38,30.02,15,1,21,0.00
2014-4-17,69,54,40,48,40,29,89,63,37,30.48,30.33,16,1,16,0.00
2014-4-18,59,55,52,53,50,46,94,84,70,30.35,30.01,15,2,19,1.38
2014-4-19,59,55,53,57,53,51,95,93,89,30.12,29.98,18,3,20,0.28
2014-4-20,70,59,50,54,50,45,95,73,48,30.19,30.10,22,3,22,0.04
2014-4-21,77,62,50,51,46,39,92,62,26,30.16,29.95,16,1,16,0.00
2014-4-22,83,63,47,64,56,46,96,81,47,29.95,29.75,16,3,28,0.04
2014-4-23,83,68,56,64,56,44,98,71,31,29.93,29.76,14,1,15,0.01
2014-4-24,81,66,50,61,51,42,92,63,39,30.08,29.92,11,0,12,0.00
2014-4-25,80,70,59,68,62,56,96,77,56,29.97,29.77,25,4,27,0.00
2014-4-26,82,67,51,57,52,41,96,64,26,30.05,29.88,12,0,12,0.00
2014-4-27,87,71,52,66,59,50,96,70,40,30.03,29.90,12,1,13,0.00
2014-4-28,87,75,64,73,67,62,96,76,51,29.96,29.82,21,2,21,0.00
2014-4-29,82,75,70,72,69,66,92,81,69,29.97,29.80,22,2,22,0.00
2014-4-30,81,74,69,71,68,63,95,83,63,30.02,29.86,13,2,16,0.00
2014-5-1,76,68,60,68,63,58,94,86,69,29.97,29.88,16,3,17,0.15
2014-5-2,69,61,56,58,55,50,96,81,53,29.99,29.88,7,0,7,0.02
2014-5-3,78,64,52,57,52,44,96,69,34,29.99,29.89,16,2,17,0.00
2014-5-4,88,70,49,61,53,47,95,61,28,30.06,29.91,19,2,19,0.00
2014-5-5,93,76,56,63,57,53,89,56,28,30.01,29.86,20,4,20,0.00
2014-5-6,91,78,61,64,60,56,87,57,34,29.98,29.88,20,4,20,0.00
2014-5-7,91,74,56,64,58,54,96,63,30,30.12,29.97,18,2,21,0.00
2014-5-8,92,77,59,70,62,57,94,65,32,30.22,30.10,16,2,17,0.00
2014-5-9,90,78,66,71,65,60,97,67,40,30.19,30.06,18,2,18,0.00
2014-5-10,88,77,69,71,68,64,95,76,48,30.13,30.02,24,3,24,0.07
2014-5-11,87,75,65,72,68,64,97,82,56,30.15,30.06,14,2,14,0.00
2014-5-12,91,78,63,72,68,62,97,75,49,30.20,30.09,14,1,14,0.00
2014-5-13,90,77,64,71,68,63,97,74,49,30.18,30.07,17,1,18,0.00
2014-5-14,90,75,62,72,67,61,97,78,46,30.15,30.00,6,1,17,0.00
2014-5-15,77,72,63,74,70,58,97,92,84,30.03,29.82,18,3,18,0.89
2014-5-16,75,63,52,58,51,47,91,68,40,30.11,29.90,26,5,26,0.00
2014-5-17,77,63,46,56,49,40,95,65,34,30.21,30.11,18,2,18,0.00
2014-5-18,71,62,56,61,57,53,93,84,65,30.24,30.17,11,1,11,0.00
2014-5-19,77,65,50,59,54,49,97,72,38,30.28,30.19,12,0,12,0.00
2014-5-20,83,68,50,63,56,49,96,70,44,30.31,30.14,13,2,14,0.00
2014-5-21,90,76,61,68,61,54,79,61,40,30.17,30.00,22,5,22,0.00
2014-5-22,93,81,66,70,65,60,83,59,34,30.05,29.92,21,4,21,0.00
2014-5-23,96,81,65,71,67,63,94,65,37,30.02,29.91,15,2,17,0.00
2014-5-24,85,76,67,68,61,55,94,64,42,30.11,29.98,12,0,12,0.00
2014-5-25,86,75,67,70,66,63,92,74,52,30.20,30.07,13,1,13,0.00
2014-5-26,88,75,62,71,67,61,95,77,52,30.23,30.10,13,2,13,0.00
2014-5-27,89,78,70,73,70,66,96,78,56,30.15,30.00,17,4,17,0.00
2014-5-28,92,78,66,74,68,64,96,75,45,30.07,29.96,16,2,17,0.00
2014-5-29,91,78,65,74,69,64,97,77,50,30.08,29.95,13,2,14,0.02
2014-5-30,84,75,69,75,71,68,97,87,69,30.10,29.97,7,0,8,0.35
2014-5-31,80,74,68,76,72,67,97,93,84,30.15,30.05,10,0,12,0.51
2014-6-1,83,73,65,69,63,57,95,72,45,30.27,30.14,11,1,13,0.00
2014-6-2,82,70,54,68,60,53,96,74,51,30.26,30.12,11,0,11,0.00
2014-6-3,85,76,66,71,68,65,96,78,54,30.15,29.97,13,2,14,0.00
2014-6-4,92,79,66,75,70,65,97,76,49,29.98,29.82,13,2,15,0.00
2014-6-5,94,82,73,76,72,69,88,74,45,29.87,29.75,23,5,26,0.00
2014-6-6,90,80,72,75,72,69,92,79,57,29.92,29.80,11,1,11,0.00
2014-6-7,87,75,70,77,72,69,96,90,69,29.98,29.85,10,1,12,0.92
2014-6-8,86,77,71,79,74,70,97,89,74,29.98,29.83,12,1,13,0.00
2014-6-9,94,81,72,78,74,67,98,80,55,29.93,29.83,16,2,29,0.15
2014-6-10,94,83,72,79,74,71,97,78,54,29.95,29.88,16,2,18,0.01
2014-6-11,91,76,69,77,71,67,96,85,57,29.99,29.83,22,2,26,1.23
2014-6-12,88,75,71,76,71,67,97,88,58,29.94,29.82,38,2,38,0.01
2014-6-13,87,76,69,77,71,67,96,83,61,29.91,29.83,19,2,19,0.63
2014-6-14,91,80,70,76,71,69,97,78,54,30.03,29.91,10,0,10,0.00
2014-6-15,94,81,70,77,73,68,97,77,51,30.13,30.01,11,0,11,0.00
2014-6-16,95,82,72,78,73,68,97,76,43,30.18,30.07,10,0,10,0.00
2014-6-17,95,82,69,76,72,68,97,74,44,30.19,30.07,9,0,9,0.00
2014-6-18,94,81,66,75,70,64,97,73,44,30.16,30.07,9,1,9,0.00
2014-6-19,96,85,68,77,72,67,96,69,46,30.14,30.01,12,1,12,0.00
2014-6-20,98,84,71,77,73,68,94,71,43,30.05,29.90,8,0,9,0.00
2014-6-21,97,84,71,79,72,69,94,71,43,29.94,29.76,18,3,18,0.00
2014-6-22,94,82,71,78,73,69,96,77,53,29.92,29.79,12,1,12,0.00
2014-6-23,92,80,71,77,72,69,95,80,55,30.08,29.90,16,0,16,0.00
2014-6-24,91,80,72,76,73,70,96,81,60,30.09,29.97,17,2,17,0.40
2014-6-25,92,81,72,76,73,71,96,79,53,30.06,29.91,18,4,18,0.00
2014-6-26,94,83,71,75,72,68,95,72,43,30.02,29.89,13,2,15,0.00
2014-6-27,93,80,72,76,72,68,91,77,55,30.07,29.95,14,2,15,0.00
2014-6-28,91,80,72,77,73,70,96,81,60,30.17,30.05,11,1,11,0.03
2014-6-29,92,81,73,76,73,71,95,78,54,30.20,30.08,6,0,10,0.00
2014-6-30,95,81,72,77,73,70,96,78,54,30.11,29.93,9,1,11,0.06
2014-7-1,97,82,71,78,73,69,95,77,47,30.00,29.88,12,1,12,0.00
2014-7-2,98,86,74,79,74,70,94,71,49,29.97,29.90,12,1,15,0.00
2014-7-3,95,81,73,78,74,70,95,81,53,29.95,29.82,23,1,23,0.35
2014-7-4,92,80,69,73,70,66,97,74,45,30.11,29.93,8,1,14,0.01
2014-7-5,87,78,70,71,65,57,90,66,51,30.22,30.11,4,1,14,0.00
2014-7-6,90,78,69,75,71,66,94,78,57,30.16,30.04,11,0,11,0.00
2014-7-7,92,78,69,78,73,68,97,86,57,30.08,29.96,12,1,13,0.45
2014-7-8,95,82,72,76,72,68,95,73,44,30.08,29.93,17,2,17,0.00
2014-7-9,97,83,72,74,70,64,88,68,36,30.05,29.93,17,3,18,0.00
2014-7-10,94,80,70,76,72,68,96,79,51,30.09,29.96,19,2,19,0.02
2014-7-11,89,79,73,78,74,71,96,86,68,30.18,30.07,11,0,11,0.00
2014-7-12,93,80,71,77,74,70,97,81,54,30.20,30.10,12,0,12,0.00
2014-7-13,95,81,69,76,72,68,97,76,49,30.16,30.00,10,1,16,0.00
2014-7-14,98,85,75,77,74,68,95,74,41,30.06,29.89,21,4,21,0.00
2014-7-15,95,81,74,78,74,72,95,83,52,29.93,29.77,19,4,19,0.07
2014-7-16,91,80,74,74,71,68,95,76,49,29.90,29.80,11,1,11,0.00
2014-7-17,92,80,69,73,69,65,95,71,42,30.04,29.89,12,0,12,0.00
2014-7-18,93,80,67,74,68,65,97,70,41,30.14,30.04,12,1,12,0.00
2014-7-19,86,77,71,73,70,68,95,82,56,30.12,30.03,10,0,11,0.09
2014-7-20,91,78,72,77,74,71,97,88,61,30.08,29.98,14,1,14,0.67
2014-7-21,92,78,73,78,74,71,97,90,61,30.10,30.00,14,1,15,0.46
2014-7-22,91,79,72,80,75,71,98,89,68,30.12,30.02,10,0,10,0.59
2014-7-23,94,82,73,79,75,72,97,81,58,30.09,29.94,11,1,11,0.01
2014-7-24,93,84,76,78,75,74,95,76,54,29.97,29.85,18,5,19,0.00
2014-7-25,91,80,74,81,75,72,96,85,63,30.02,29.91,12,1,13,1.02
2014-7-26,95,81,72,80,75,71,97,82,55,30.04,29.93,9,1,9,0.00
2014-7-27,96,83,71,80,75,70,96,77,55,29.99,29.86,17,3,18,0.00
2014-7-28,95,86,76,80,75,65,86,71,43,29.88,29.75,21,5,21,0.00
2014-7-29,90,78,65,72,66,62,93,70,45,29.95,29.85,9,0,11,0.00
2014-7-30,89,77,69,74,69,63,91,77,56,30.03,29.94,14,0,14,0.00
2014-7-31,85,76,70,76,71,68,94,86,70,30.05,30.00,8,0,11,0.00
2014-8-1,87,77,71,77,72,68,96,86,70,30.05,29.97,11,1,12,0.00
2014-8-2,74,72,71,72,71,69,96,95,92,30.09,30.00,9,1,9,0.54
2014-8-3,86,76,70,76,72,69,97,88,70,30.10,30.00,10,0,14,0.01
2014-8-4,90,78,72,77,73,70,97,85,58,30.07,29.97,11,1,13,0.00
2014-8-5,94,80,71,78,74,70,97,82,54,30.05,29.96,10,0,10,0.00
2014-8-6,95,81,68,74,70,66,97,74,43,30.01,29.91,14,1,15,0.00
2014-8-7,96,82,69,76,71,68,96,71,45,29.98,29.90,11,0,11,0.00
2014-8-8,95,79,70,78,72,68,95,81,51,30.08,29.95,13,0,18,0.48
2014-8-9,91,80,73,80,76,71,97,88,67,30.06,29.94,8,0,9,0.27
2014-8-10,87,78,74,80,75,73,97,91,74,30.04,29.95,7,0,7,0.10
2014-8-11,93,80,74,79,75,73,97,86,60,30.02,29.89,7,0,7,0.00
2014-8-12,93,80,73,82,76,72,97,87,65,29.92,29.78,14,1,15,0.02
2014-8-13,92,80,72,75,71,62,97,76,39,29.95,29.83,21,2,21,0.01
2014-8-14,90,77,64,73,67,62,94,74,49,30.05,29.94,11,0,11,0.00
2014-8-15,92,79,65,78,71,63,97,80,51,30.04,29.92,11,0,11,0.05
2014-8-16,94,80,70,78,71,66,97,76,42,30.03,29.94,13,1,14,0.01
2014-8-17,95,81,67,74,70,65,97,73,43,30.04,29.93,15,2,15,0.00
2014-8-18,94,82,73,78,74,71,94,79,57,29.98,29.81,17,3,17,0.00
2014-8-19,93,81,73,77,73,70,91,78,54,29.91,29.80,21,6,24,0.00
2014-8-20,98,83,71,79,74,69,96,76,47,30.04,29.89,13,1,13,0.00
2014-8-21,100,85,72,75,71,67,92,67,35,30.08,29.99,12,0,13,0.00
2014-8-22,101,85,71,76,73,69,96,70,39,30.05,29.91,19,2,19,0.00
2014-8-23,102,86,72,79,74,70,95,70,39,29.94,29.82,12,0,12,0.00
2014-8-24,90,81,74,75,72,67,93,75,54,30.02,29.86,15,1,16,0.00
2014-8-25,90,77,66,67,64,60,86,66,39,30.06,29.99,17,1,19,0.00
2014-8-26,92,79,69,69,67,65,88,68,46,30.09,30.00,14,1,15,0.00
2014-8-27,95,76,62,67,62,58,94,67,31,30.06,29.95,14,1,15,0.00
2014-8-28,99,78,58,69,61,51,96,63,23,30.04,29.94,12,1,12,0.00
2014-8-29,98,82,63,73,66,58,96,63,27,30.11,30.01,11,0,11,0.00
2014-8-30,97,82,70,78,72,68,96,74,44,30.17,30.05,11,0,11,0.00
2014-8-31,100,81,73,78,74,70,96,81,45,30.16,30.02,14,1,16,0.22
2014-9-1,98,82,72,80,74,71,97,79,44,30.12,30.00,13,1,14,0.01
2014-9-2,98,82,74,78,74,70,96,79,50,30.09,29.96,15,1,22,0.02
2014-9-3,97,82,71,77,73,69,96,76,47,30.09,29.96,15,1,15,0.01
2014-9-4,97,83,72,78,74,70,96,76,46,30.15,30.06,16,1,16,0.00
2014-9-5,94,80,70,77,72,68,97,80,53,30.17,30.03,12,0,16,0.00
2014-9-6,91,81,74,78,74,72,96,81,58,30.06,29.90,10,0,10,0.01
2014-9-7,93,79,73,78,74,71,97,85,57,30.00,29.88,9,0,12,1.74
2014-9-8,79,76,72,75,73,70,97,93,82,30.08,29.94,9,1,11,0.36
2014-9-9,82,75,69,73,70,68,96,86,72,30.13,30.04,7,0,9,0.00
2014-9-10,88,75,67,74,70,65,97,85,60,30.12,30.00,6,0,9,0.00
2014-9-11,93,80,70,78,73,68,97,83,57,30.06,29.94,12,1,13,0.00
2014-9-12,93,79,74,80,75,73,97,89,62,30.04,29.95,5,0,11,0.00
2014-9-13,90,79,74,79,75,72,97,88,67,30.11,29.99,15,1,16,0.06
2014-9-14,76,74,71,74,72,69,97,93,87,30.20,30.08,9,0,11,0.52
2014-9-15,76,72,68,74,70,67,97,95,90,30.21,30.10,4,0,6,0.32
2014-9-16,90,78,73,77,74,70,98,86,60,30.11,29.90,9,1,12,0.06
2014-9-17,86,75,70,76,71,69,97,88,69,29.94,29.84,11,0,14,0.00
2014-9-18,86,74,66,74,70,65,97,87,62,30.00,29.88,8,0,11,0.00
2014-9-19,82,71,66,74,69,65,97,93,72,30.13,29.98,11,0,16,2.31
2014-9-20,80,72,64,69,66,62,96,82,62,30.13,29.97,11,0,18,0.00
2014-9-21,89,73,59,70,65,58,96,77,50,30.00,29.87,16,3,17,0.00
2014-9-22,76,70,64,70,65,63,95,85,68,30.13,29.91,10,1,10,0.17
2014-9-23,72,66,59,67,62,54,96,88,75,30.23,30.06,18,1,18,0.12
2014-9-24,66,61,57,62,58,54,95,90,81,30.25,30.18,15,3,19,0.12
2014-9-25,73,67,63,69,65,62,97,93,86,30.20,30.11,9,1,11,0.02
2014-9-26,73,69,66,68,66,64,96,91,84,30.17,30.09,9,1,11,0.01
2014-9-27,82,73,67,68,66,63,92,79,61,30.16,30.08,11,0,13,0.00
2014-9-28,81,73,69,72,68,65,92,83,69,30.13,30.03,9,0,11,0.00
2014-9-29,73,70,66,70,67,64,94,91,84,30.04,29.93,8,0,8,0.04
2014-9-30,86,72,62,70,65,60,96,80,54,29.94,29.83,9,0,10,0.00
2014-10-1,88,72,58,71,64,57,97,80,47,30.04,29.89,7,0,8,0.01
2014-10-2,88,73,60,70,64,58,97,78,47,30.12,30.01,7,0,10,0.00
2014-10-3,84,72,60,75,68,59,97,90,72,30.07,29.83,16,2,18,0.79
2014-10-4,73,67,54,71,54,39,96,67,30,29.95,29.78,23,6,23,0.01
2014-10-5,70,55,42,50,44,38,94,70,32,30.07,29.94,13,2,17,0.00
2014-10-6,79,61,45,56,50,43,96,71,37,30.14,30.02,14,1,14,0.00
2014-10-7,82,67,54,65,60,52,96,79,51,30.16,30.02,16,2,17,0.00
2014-10-8,90,73,58,70,64,57,98,78,44,30.10,29.99,19,3,19,0.00
2014-10-9,84,71,57,67,62,56,97,76,44,30.16,30.05,7,0,10,0.00
2014-10-10,88,74,60,74,68,59,96,80,57,30.12,30.00,14,1,14,0.00
2014-10-11,90,77,68,73,70,67,97,81,49,30.06,29.94,18,3,20,0.00
2014-10-12,81,72,65,74,69,63,97,89,74,30.17,29.99,14,0,16,0.00
2014-10-13,87,74,69,76,70,68,97,88,63,30.20,30.06,14,0,14,0.00
2014-10-14,84,75,70,75,72,68,97,91,72,30.08,29.84,16,2,19,0.18
2014-10-15,74,67,60,69,61,56,97,82,55,29.92,29.84,21,3,21,0.81
2014-10-16,70,62,54,58,56,52,95,82,63,29.93,29.83,19,3,20,0.00
2014-10-17,78,60,47,62,54,46,97,83,52,29.99,29.86,15,1,17,0.00
2014-10-18,83,68,57,64,57,53,91,69,37,29.95,29.78,20,4,23,0.00
2014-10-19,72,59,48,56,50,45,95,75,47,30.14,29.96,14,1,15,0.00
2014-10-20,76,58,42,60,52,41,96,82,50,30.15,29.98,13,1,13,0.00
2014-10-21,79,62,49,58,53,48,96,75,35,30.00,29.85,16,2,16,0.00
2014-10-22,68,55,43,52,47,41,95,76,44,30.10,29.95,16,1,16,0.00
2014-10-23,72,53,39,50,44,37,99,76,39,30.12,29.98,11,0,13,0.00
2014-10-24,74,58,45,57,50,44,95,75,43,30.09,29.97,9,0,9,0.00
2014-10-25,76,56,40,57,48,38,100,78,37,30.06,29.94,9,0,9,0.00
2014-10-26,88,63,45,64,52,44,96,74,29,29.98,29.88,14,1,14,0.00
2014-10-27,86,65,46,62,55,45,96,75,39,30.10,29.96,7,0,8,0.00
2014-10-28,85,68,52,68,60,51,97,78,46,30.15,30.06,14,1,14,0.00
2014-10-29,82,67,57,67,62,55,96,84,54,30.09,29.94,15,2,17,0.00
2014-10-30,73,63,50,65,53,48,96,74,45,30.03,29.92,14,0,14,0.09
2014-10-31,70,56,44,55,50,42,94,80,46,29.94,29.77,8,0,13,0.10
2014-11-1,55,45,37,52,40,34,93,82,63,30.10,29.72,27,6,27,0.28
2014-11-2,59,44,34,37,34,30,93,72,34,30.37,30.10,15,2,17,0.00
2014-11-3,64,45,30,41,34,28,100,71,29,30.50,30.36,7,0,8,0.00
2014-11-4,70,50,34,48,40,33,95,75,26,30.43,30.26,12,1,12,0.00
2014-11-5,75,59,47,63,54,45,96,86,60,30.33,30.17,12,1,12,0.00
2014-11-6,79,66,56,66,60,44,98,82,57,30.18,29.85,24,4,27,0.00
2014-11-7,64,51,38,44,40,35,94,69,42,30.07,29.91,15,1,15,0.00
2014-11-8,63,49,34,50,42,32,96,80,52,30.08,29.96,8,0,8,0.00
2014-11-9,68,54,42,52,48,41,94,80,52,30.02,29.91,9,0,9,0.00
2014-11-10,70,52,37,50,44,35,96,76,40,30.11,29.99,14,0,14,0.00
2014-11-11,78,61,50,62,52,46,95,75,55,30.01,29.89,13,1,15,0.00
2014-11-12,79,58,42,64,53,41,96,85,56,30.02,29.94,11,1,11,0.01
2014-11-13,62,56,48,57,50,40,96,82,68,30.06,29.96,12,3,15,0.00
2014-11-14,48,42,32,41,36,28,92,80,70,30.31,30.01,11,1,20,0.00
2014-11-15,51,38,29,29,24,20,85,61,36,30.46,30.30,11,0,11,0.00
2014-11-16,55,47,33,44,36,28,85,67,59,30.35,30.05,8,0,8,0.00
2014-11-17,72,56,39,68,53,31,97,88,74,30.05,29.68,28,5,29,0.18
2014-11-18,44,34,25,31,24,18,90,66,38,30.37,30.00,19,4,20,0.00
2014-11-19,50,34,19,25,21,16,89,63,29,30.45,30.30,14,1,16,0.00
2014-11-20,64,44,24,42,32,21,90,67,40,30.31,30.13,22,3,22,0.00
2014-11-21,66,48,31,40,33,29,94,62,28,30.48,30.25,12,0,13,0.00
2014-11-22,64,48,29,48,31,23,85,55,27,30.53,30.26,8,0,10,0.00
2014-11-23,68,60,52,67,58,48,96,95,86,30.27,29.77,21,2,21,2.03
2014-11-24,72,68,62,69,66,60,96,94,89,29.98,29.77,19,4,21,0.06
2014-11-25,63,60,56,62,58,55,97,94,87,30.09,29.91,12,1,12,0.41
2014-11-26,59,51,40,55,47,36,96,87,66,30.10,29.86,17,3,17,0.61
2014-11-27,55,46,39,39,36,32,88,67,47,30.32,30.05,29,5,30,0.00
2014-11-28,50,38,28,34,29,26,94,75,42,30.44,30.30,9,0,10,0.00
2014-11-29,60,42,28,39,33,26,94,75,40,30.39,30.26,13,1,13,0.01
2014-11-30,69,49,32,54,43,31,96,82,50,30.40,30.28,12,2,18,0.00
2014-12-1,74,53,38,58,47,36,99,83,54,30.43,30.31,12,1,13,0.00
2014-12-2,75,57,42,61,52,41,96,84,60,30.35,30.25,8,0,11,0.00
2014-12-3,67,58,54,61,56,52,97,94,80,30.31,30.20,9,0,10,0.00
2014-12-4,61,56,50,59,54,49,97,94,89,30.35,30.23,8,0,9,0.01
2014-12-5,66,57,49,56,53,47,92,85,67,30.44,30.32,9,0,9,0.00
2014-12-6,63,56,49,60,54,46,96,91,84,30.32,30.07,14,1,20,0.02
2014-12-7,59,53,44,54,44,33,92,71,56,30.34,30.11,18,3,19,0.00
2014-12-8,49,44,41,40,36,30,88,71,62,30.36,30.16,14,2,16,0.00
2014-12-9,57,47,41,44,40,35,94,76,59,30.17,29.96,14,2,14,0.00
2014-12-10,55,42,31,38,34,29,93,75,45,30.12,30.01,19,2,19,0.00
2014-12-11,55,38,26,38,31,25,93,77,43,30.19,30.04,10,0,10,0.00
2014-12-12,61,40,24,35,27,20,92,66,23,30.31,30.18,11,0,11,0.01
2014-12-13,67,42,26,39,29,24,92,65,24,30.21,30.07,10,0,10,0.00
2014-12-14,70,46,30,40,33,27,92,68,28,30.09,29.99,8,0,9,0.00
2014-12-15,68,45,29,46,37,27,93,75,39,30.11,30.02,9,0,9,0.00
2014-12-16,68,52,34,63,45,32,94,79,52,30.09,29.91,20,5,21,0.08
2014-12-17,63,47,35,47,40,32,94,79,51,30.18,30.06,12,0,13,0.00
2014-12-18,63,45,33,47,39,32,95,82,53,30.19,30.06,7,0,8,0.00
2014-12-19,63,48,33,47,41,32,95,79,54,30.18,30.08,9,0,9,0.00
2014-12-20,51,48,46,49,46,44,95,92,84,30.25,30.14,7,0,9,0.11
2014-12-21,54,48,44,46,44,40,93,85,72,30.26,30.10,10,0,10,0.28
2014-12-22,47,46,44,46,44,43,95,94,93,30.11,29.95,8,0,11,0.37
2014-12-23,55,47,44,55,46,43,97,96,95,30.04,29.80,14,1,14,0.52
2014-12-24,68,64,56,67,62,55,97,96,82,29.82,29.68,26,4,28,2.39